createdAt,value
2023-08-12T00:00:17.406Z,1020.479282
2023-08-12T00:05:17.697Z,1020.525493
2023-08-12T00:10:17.454Z,1020.481970
2023-08-12T00:15:17.748Z,1020.499288
2023-08-12T00:20:18.204Z,1020.459561
2023-08-12T00:25:17.377Z,1020.485681
2023-08-12T00:30:17.483Z,1020.461365
2023-08-12T00:35:17.572Z,1020.446833
2023-08-12T00:40:17.525Z,1020.456227
2023-08-12T00:45:18.019Z,1020.500129
2023-08-12T00:50:17.370Z,1020.477320
2023-08-12T00:55:17.561Z,1020.450189
2023-08-12T01:00:17.509Z,1020.418577
2023-08-12T01:05:17.492Z,1020.425113
2023-08-12T01:10:17.546Z,1020.377796
2023-08-12T01:15:17.627Z,1020.311583
2023-08-12T01:20:17.448Z,1020.261812
2023-08-12T01:25:17.962Z,1020.222645
2023-08-12T01:30:17.545Z,1020.211836
2023-08-12T01:35:17.431Z,1020.091588
2023-08-12T01:40:17.552Z,1019.989806
2023-08-12T01:45:17.438Z,1019.940733
2023-08-12T01:50:17.627Z,1019.858559
2023-08-12T01:55:17.341Z,1019.722616
2023-08-12T02:00:17.737Z,1019.688785
2023-08-12T02:05:17.720Z,1019.656460
2023-08-12T02:10:17.554Z,1019.548444
2023-08-12T02:15:17.942Z,1019.529292
2023-08-12T02:20:18.107Z,1019.511382
2023-08-12T02:25:17.454Z,1019.468680
2023-08-12T02:30:17.544Z,1019.438287
2023-08-12T02:35:17.464Z,1019.430629
2023-08-12T02:40:17.962Z,1019.353055
2023-08-12T02:45:17.499Z,1019.302803
2023-08-12T02:50:17.433Z,1019.268818
2023-08-12T02:55:17.659Z,1019.323123
2023-08-12T03:00:17.466Z,1019.290253
2023-08-12T03:05:17.482Z,1019.261357
2023-08-12T03:10:17.493Z,1019.201625
2023-08-12T03:15:17.517Z,1019.148494
2023-08-12T03:20:17.356Z,1019.213229
2023-08-12T03:25:17.454Z,1019.148182
2023-08-12T03:30:17.454Z,1019.130405
2023-08-12T03:35:20.185Z,1019.168246
2023-08-12T03:40:17.463Z,1019.142239
2023-08-12T03:45:17.451Z,1019.041401
2023-08-12T03:50:17.377Z,1019.003686
2023-08-12T03:55:17.389Z,1018.919969
2023-08-12T04:00:18.251Z,1018.907512
2023-08-12T04:05:17.435Z,1018.889635
2023-08-12T04:10:17.546Z,1018.889893
2023-08-12T04:15:17.414Z,1018.842909
2023-08-12T04:20:17.427Z,1018.833582
2023-08-12T04:25:17.340Z,1018.840338
2023-08-12T04:30:17.506Z,1018.846327
2023-08-12T04:35:17.480Z,1018.786519
2023-08-12T04:40:17.546Z,1018.724551
2023-08-12T04:45:17.457Z,1018.707415
2023-08-12T04:50:17.399Z,1018.677947
2023-08-12T04:55:17.386Z,1018.675657
2023-08-12T05:00:17.862Z,1018.665207
2023-08-12T05:05:17.865Z,1018.612151
2023-08-12T05:10:17.356Z,1018.515952
2023-08-12T05:15:17.959Z,1018.493524
2023-08-12T05:20:17.596Z,1018.494546
2023-08-12T05:25:18.233Z,1018.454676
2023-08-12T05:30:17.607Z,1018.412917
2023-08-12T05:35:17.702Z,1018.343251
2023-08-12T05:40:17.925Z,1018.325432
2023-08-12T05:45:17.477Z,1018.328186
2023-08-12T05:50:17.528Z,1018.291351
2023-08-12T05:55:17.777Z,1018.285597
2023-08-12T06:00:17.472Z,1018.232426
2023-08-12T06:05:17.525Z,1018.240709
2023-08-12T06:10:17.442Z,1018.185174
2023-08-12T06:15:17.781Z,1018.120701
2023-08-12T06:20:17.405Z,1018.044952
2023-08-12T06:25:17.388Z,1018.048390
2023-08-12T06:30:17.414Z,1018.001953
2023-08-12T06:35:17.384Z,1017.983200
2023-08-12T06:40:17.307Z,1017.919180
2023-08-12T06:45:17.725Z,1017.895739
2023-08-12T06:50:17.561Z,1017.815952
2023-08-12T06:55:17.372Z,1017.706060
2023-08-12T07:00:17.392Z,1017.748767
2023-08-12T07:05:17.452Z,1017.766267
2023-08-12T07:10:17.656Z,1017.743382
2023-08-12T07:15:17.482Z,1017.727426
2023-08-12T07:20:17.577Z,1017.726482
2023-08-12T07:25:17.601Z,1017.649957
2023-08-12T07:30:17.516Z,1017.600362
2023-08-12T07:35:17.576Z,1017.632625
2023-08-12T07:40:17.378Z,1017.685179
2023-08-12T07:45:17.388Z,1017.696069
2023-08-12T07:50:17.477Z,1017.687874
2023-08-12T07:55:17.208Z,1017.604816
2023-08-12T08:00:17.391Z,1017.565996
2023-08-12T08:05:17.794Z,1017.531901
2023-08-12T08:10:17.434Z,1017.513982
2023-08-12T08:15:17.412Z,1017.472715
2023-08-12T08:20:17.582Z,1017.393449
2023-08-12T08:25:17.955Z,1017.285448
2023-08-12T08:30:17.358Z,1017.228104
2023-08-12T08:35:17.768Z,1017.182075
2023-08-12T08:40:19.380Z,1017.026679
2023-08-12T08:45:17.704Z,1016.999300
2023-08-12T08:50:17.607Z,1016.969145
2023-08-12T08:55:18.391Z,1016.999110
2023-08-12T09:00:18.429Z,1017.034293
2023-08-12T09:05:17.442Z,1017.033097
2023-08-12T09:10:17.776Z,1017.099827
2023-08-12T09:15:17.582Z,1017.104609
2023-08-12T09:20:17.425Z,1017.063985
2023-08-12T09:25:17.322Z,1017.006408
2023-08-12T09:30:17.392Z,1016.932619
2023-08-12T09:35:17.533Z,1016.874676
2023-08-12T09:40:17.371Z,1016.740895
2023-08-12T09:45:17.483Z,1016.641704
2023-08-12T09:50:17.258Z,1016.541064
2023-08-12T09:55:17.554Z,1016.438648
2023-08-12T10:00:17.674Z,1016.375760
2023-08-12T10:05:17.737Z,1016.328438
2023-08-12T10:10:17.510Z,1016.335133
2023-08-12T10:15:17.281Z,1016.278764
2023-08-12T10:20:17.621Z,1016.289346
2023-08-12T10:25:17.294Z,1016.293176
2023-08-12T10:30:17.447Z,1016.292675
2023-08-12T10:35:17.417Z,1016.289636
2023-08-12T10:40:17.264Z,1016.327735
2023-08-12T10:45:17.443Z,1016.358217
2023-08-12T10:50:17.318Z,1016.347110
2023-08-12T10:55:17.316Z,1016.257820
2023-08-12T11:00:17.759Z,1016.146748
2023-08-12T11:05:17.361Z,1016.200681
2023-08-12T11:10:17.794Z,1016.194836
2023-08-12T11:15:18.016Z,1016.231880
2023-08-12T11:20:17.317Z,1016.225742
2023-08-12T11:25:20.528Z,1016.233144
2023-08-12T11:30:17.515Z,1016.244261
2023-08-12T11:35:17.873Z,1016.222247
2023-08-12T11:40:17.401Z,1016.202512
2023-08-12T11:45:17.344Z,1016.254861
2023-08-12T11:50:17.358Z,1016.290385
2023-08-12T11:55:17.274Z,1016.313896
2023-08-12T12:00:17.337Z,1016.328313
2023-08-12T12:05:17.633Z,1016.234821
2023-08-12T12:10:17.327Z,1016.126145
2023-08-12T12:15:17.457Z,1016.087418
2023-08-12T12:20:17.229Z,1016.100103
2023-08-12T12:25:17.580Z,1016.099710
2023-08-12T12:30:17.332Z,1016.123191
2023-08-12T12:35:17.437Z,1016.043559
2023-08-12T12:40:17.427Z,1016.023022
2023-08-12T12:45:17.498Z,1015.985189
2023-08-12T12:50:17.481Z,1015.916265
2023-08-12T12:55:17.349Z,1015.827649
2023-08-12T13:00:17.430Z,1015.750758
2023-08-12T13:05:17.491Z,1015.600861
2023-08-12T13:10:17.257Z,1015.474131
2023-08-12T13:15:17.337Z,1015.342367
2023-08-12T13:20:17.547Z,1015.268712
2023-08-12T13:25:17.411Z,1015.269539
2023-08-12T13:30:17.708Z,1015.267822
2023-08-12T13:35:17.252Z,1015.221886
2023-08-12T13:40:17.287Z,1015.122809
2023-08-12T13:45:17.619Z,1015.090612
2023-08-12T13:50:17.372Z,1015.064846
2023-08-12T13:55:17.424Z,1015.125229
2023-08-12T14:00:17.642Z,1015.227391
2023-08-12T14:05:17.326Z,1015.280589
2023-08-12T14:10:17.302Z,1015.207398
2023-08-12T14:15:17.553Z,1015.083741
2023-08-12T14:20:17.533Z,1014.946965
2023-08-12T14:25:17.774Z,1014.885854
2023-08-12T14:30:17.666Z,1014.719255
2023-08-12T14:35:17.315Z,1014.633880
2023-08-12T14:40:17.555Z,1014.638540
2023-08-12T14:45:17.433Z,1014.564309
2023-08-12T14:50:17.314Z,1014.408977
2023-08-12T14:55:17.276Z,1014.407531
2023-08-12T15:00:17.573Z,1014.372545
2023-08-12T15:05:17.121Z,1014.335519
2023-08-12T15:10:17.152Z,1014.349527
2023-08-12T15:15:17.439Z,1014.316646
2023-08-12T15:20:17.307Z,1014.307971
2023-08-12T15:25:17.276Z,1014.377803
2023-08-12T15:30:17.437Z,1014.389561
2023-08-12T15:35:17.512Z,1014.390450
2023-08-12T15:40:17.192Z,1014.397167
2023-08-12T15:45:17.524Z,1014.432262
2023-08-12T15:50:17.285Z,1014.422649
2023-08-12T15:55:17.333Z,1014.402938
2023-08-12T16:00:17.512Z,1014.389397
2023-08-12T16:05:17.415Z,1014.425140
2023-08-12T16:10:17.409Z,1014.503487
2023-08-12T16:15:17.271Z,1014.907202
2023-08-12T16:20:17.359Z,1015.814843
2023-08-12T16:25:17.344Z,1016.218237
2023-08-12T16:30:17.242Z,1016.466774
2023-08-12T16:35:17.271Z,1016.684448
2023-08-12T16:40:17.488Z,1016.826378
2023-08-12T16:45:17.371Z,1016.888489
2023-08-12T16:50:17.243Z,1016.892645
2023-08-12T16:55:17.483Z,1016.806830
2023-08-12T17:00:17.316Z,1016.572933
2023-08-12T17:05:17.200Z,1016.529468
2023-08-12T17:10:17.372Z,1016.449972
2023-08-12T17:15:17.432Z,1016.508269
2023-08-12T17:20:17.725Z,1016.429097
2023-08-12T17:25:17.265Z,1016.205096
2023-08-12T17:30:17.445Z,1016.056146
2023-08-12T17:35:17.592Z,1016.096340
2023-08-12T17:40:17.458Z,1016.121891
2023-08-12T17:45:17.707Z,1016.243934
2023-08-12T17:50:17.540Z,1016.101970
2023-08-12T17:55:17.272Z,1015.958909
2023-08-12T18:00:17.343Z,1015.866923
2023-08-12T18:05:17.891Z,1016.056237
2023-08-12T18:10:17.108Z,1016.252861
2023-08-12T18:15:17.265Z,1016.252429
2023-08-12T18:20:17.548Z,1016.290457
2023-08-12T18:25:17.261Z,1016.369048
2023-08-12T18:30:17.514Z,1016.496647
2023-08-12T18:35:17.116Z,1016.486642
2023-08-12T18:40:17.379Z,1016.514196
2023-08-12T18:45:17.098Z,1016.529895
2023-08-12T18:50:17.204Z,1016.493433
2023-08-12T18:55:17.500Z,1016.440067
2023-08-12T19:00:17.278Z,1016.383248
2023-08-12T19:05:17.217Z,1016.351921
2023-08-12T19:10:17.254Z,1016.368138
2023-08-12T19:15:17.236Z,1016.352977
2023-08-12T19:20:17.154Z,1016.393049
2023-08-12T19:25:17.134Z,1016.462355
2023-08-12T19:30:17.377Z,1016.424483
2023-08-12T19:35:17.275Z,1016.498247
2023-08-12T19:40:17.243Z,1016.482029
2023-08-12T19:45:17.576Z,1016.414651
2023-08-12T19:50:17.174Z,1016.478603
2023-08-12T19:55:17.698Z,1016.540193
2023-08-12T20:00:17.102Z,1016.602110
2023-08-12T20:05:17.333Z,1016.612055
2023-08-12T20:10:17.673Z,1016.546932
2023-08-12T20:15:17.465Z,1016.630526
2023-08-12T20:20:17.256Z,1016.753897
2023-08-12T20:25:17.156Z,1016.690952
2023-08-12T20:30:17.400Z,1016.745123
2023-08-12T20:35:17.265Z,1016.771609
2023-08-12T20:40:17.129Z,1016.749820
2023-08-12T20:45:17.207Z,1016.777776
2023-08-12T20:50:17.187Z,1016.805107
2023-08-12T20:55:17.115Z,1016.848956
2023-08-12T21:00:17.250Z,1016.867185
2023-08-12T21:05:17.135Z,1016.855639
2023-08-12T21:10:17.106Z,1016.909866
2023-08-12T21:15:17.092Z,1016.909677
2023-08-12T21:20:17.018Z,1016.909245
2023-08-12T21:25:17.402Z,1016.909682
2023-08-12T21:30:17.185Z,1016.877718
2023-08-12T21:35:17.480Z,1016.885007
2023-08-12T21:40:17.211Z,1016.889466
2023-08-12T21:45:17.151Z,1016.874021
2023-08-12T21:50:17.128Z,1016.875879
2023-08-12T21:55:17.072Z,1016.922094
2023-08-12T22:00:18.140Z,1016.931987
2023-08-12T22:05:17.386Z,1016.899126
2023-08-12T22:10:17.182Z,1016.937050
2023-08-12T22:15:17.189Z,1016.942415
2023-08-12T22:20:17.205Z,1016.982089
2023-08-12T22:25:17.104Z,1017.042993
2023-08-12T22:30:17.134Z,1017.103684
2023-08-12T22:35:17.106Z,1017.140660
2023-08-12T22:40:17.315Z,1017.189971
2023-08-12T22:45:17.441Z,1017.250313
2023-08-12T22:50:17.175Z,1017.301525
2023-08-12T22:55:17.346Z,1017.332229
2023-08-12T23:00:17.701Z,1017.357251
2023-08-12T23:05:17.522Z,1017.380808
2023-08-12T23:10:17.593Z,1017.404530
2023-08-12T23:15:17.192Z,1017.349250
2023-08-12T23:20:17.058Z,1017.397125
2023-08-12T23:25:17.154Z,1017.430142
2023-08-12T23:30:17.118Z,1017.483152
2023-08-12T23:35:17.294Z,1017.467247
2023-08-12T23:40:17.122Z,1017.498435
2023-08-12T23:45:17.171Z,1017.568015
2023-08-12T23:50:17.079Z,1017.635410
2023-08-12T23:55:17.197Z,1017.660125
